Time;durP1;ratioP1;P1;durP2;ratioP2;P2;SDS_P1;SDS_P2;PMS_P1;PMS_P2;Temp;Humidity;BMP_temperature;BMP_pressure;BME280_temperature;BME280_humidity;BME280_pressure;Samples;Min_cycle;Max_cycle;Signal;HPM_P1;HPM_P2
2022/05/18 00:02:00;;;;;;;2.42;1.30;;;;;;;;;;5094393;28;20140;-72
2022/05/18 00:04:27;;;;;;;2.00;1.40;;;;;;;;;;5094246;28;20076;-72
2022/05/18 00:06:54;;;;;;;3.80;1.67;;;;;;;;;;5094383;28;20093;-72
2022/05/18 00:09:20;;;;;;;3.10;1.60;;;;;;;;;;5094471;28;20139;-72
2022/05/18 00:11:47;;;;;;;3.08;1.40;;;;;;;;;;5093210;28;20048;-73
2022/05/18 00:14:13;;;;;;;2.58;1.33;;;;;;;;;;5094265;28;20086;-73
2022/05/18 00:16:39;;;;;;;1.92;1.52;;;;;;;;;;5094178;28;20384;-72
2022/05/18 00:19:06;;;;;;;1.83;1.33;;;;;;;;;;5094375;28;20055;-73
2022/05/18 00:21:32;;;;;;;3.85;1.80;;;;;;;;;;5093930;28;20083;-72
2022/05/18 00:23:59;;;;;;;1.95;1.60;;;;;;;;;;5094250;28;20101;-72
2022/05/18 00:26:25;;;;;;;3.30;1.33;;;;;;;;;;5093811;28;20134;-72
2022/05/18 00:28:52;;;;;;;3.83;1.80;;;;;;;;;;5094156;28;20074;-72
2022/05/18 00:31:19;;;;;;;1.52;1.33;;;;;;;;;;5093458;28;20082;-73
2022/05/18 00:33:46;;;;;;;1.92;1.48;;;;;;;;;;5093570;28;20060;-73
2022/05/18 00:36:12;;;;;;;3.90;1.55;;;;;;;;;;5084250;28;20558;-72
2022/05/18 00:38:39;;;;;;;3.50;1.15;;;;;;;;;;5073365;28;20087;-72
2022/05/18 00:41:05;;;;;;;2.15;1.58;;;;;;;;;;5081290;28;20048;-73
2022/05/18 00:43:32;;;;;;;3.28;1.52;;;;;;;;;;5093854;28;20076;-73
2022/05/18 00:45:59;;;;;;;1.95;1.40;;;;;;;;;;5093498;28;20484;-73
2022/05/18 00:48:26;;;;;;;4.43;1.70;;;;;;;;;;5093603;28;20071;-73
2022/05/18 00:50:53;;;;;;;2.53;1.67;;;;;;;;;;5092402;28;20071;-73
2022/05/18 00:53:22;;;;;;;2.75;1.88;;;;;;;;;;5093361;28;20079;-73
2022/05/18 00:55:51;;;;;;;2.10;1.40;;;;;;;;;;5093130;28;20621;-73
2022/05/18 00:58:17;;;;;;;2.47;1.40;;;;;;;;;;5093532;28;20044;-73
2022/05/18 01:00:44;;;;;;;3.35;1.35;;;;;;;;;;5093382;28;20113;-73
2022/05/18 01:03:14;;;;;;;2.00;1.52;;;;;;;;;;5093257;28;20089;-73
2022/05/18 01:05:42;;;;;;;2.50;1.67;;;;;;;;;;5093210;28;20079;-73
2022/05/18 01:08:10;;;;;;;4.50;2.15;;;;;;;;;;5093080;28;20099;-73
2022/05/18 01:10:37;;;;;;;2.83;1.60;;;;;;;;;;5093402;28;20079;-73
2022/05/18 01:13:04;;;;;;;5.50;2.10;;;;;;;;;;5093557;28;20110;-73
2022/05/18 01:15:32;;;;;;;4.20;2.00;;;;;;;;;;5093271;28;20079;-73
2022/05/18 01:17:59;;;;;;;;;;;;;;;;;;5093318;28;20090;-72
2022/05/18 01:20:28;;;;;;;2.80;2.17;;;;;;;;;;5091905;28;19955;-73
2022/05/18 01:23:00;;;;;;;3.97;2.47;;;;;;;;;;5092951;28;20095;-73
2022/05/18 01:25:45;;;;;;;2.85;2.28;;;;;;;;;;5093047;28;20105;-73
2022/05/18 01:28:12;;;;;;;5.07;2.50;;;;;;;;;;5093040;28;20107;-73
2022/05/18 01:30:42;;;;;;;3.47;2.47;;;;;;;;;;5092642;28;20091;-73
2022/05/18 01:33:09;;;;;;;3.65;2.40;;;;;;;;;;5093133;28;20070;-73
2022/05/18 01:35:38;;;;;;;6.07;2.50;;;;;;;;;;5092404;28;20824;-73
2022/05/18 01:38:06;;;;;;;5.20;2.53;;;;;;;;;;5092763;28;20351;-74
2022/05/18 01:40:35;;;;;;;5.78;3.00;;;;;;;;;;5092413;28;20483;-72
2022/05/18 01:43:11;;;;;;;3.53;2.40;;;;;;;;;;5092044;28;20511;-73
2022/05/18 01:45:37;;;;;;;4.88;3.30;;;;;;;;;;5092594;28;20047;-73
2022/05/18 01:48:08;;;;;;;4.80;2.78;;;;;;;;;;5092392;28;20091;-73
2022/05/18 01:50:35;;;;;;;5.00;2.90;;;;;;;;;;5092576;28;20474;-73
2022/05/18 01:53:01;;;;;;;8.18;3.13;;;;;;;;;;5092236;28;20052;-73
2022/05/18 01:55:28;;;;;;;4.88;2.60;;;;;;;;;;5092149;28;20084;-73
2022/05/18 01:57:54;;;;;;;6.22;3.17;;;;;;;;;;5092154;28;20566;-73
2022/05/18 02:00:21;;;;;;;8.68;3.50;;;;;;;;;;5092184;28;20082;-73
2022/05/18 02:02:47;;;;;;;7.10;3.58;;;;;;;;;;5092208;28;20087;-74
2022/05/18 02:05:13;;;;;;;5.82;3.30;;;;;;;;;;5092151;28;20459;-73
2022/05/18 02:07:40;;;;;;;7.22;3.90;;;;;;;;;;5091041;28;20091;-73
2022/05/18 02:10:06;;;;;;;7.85;4.05;;;;;;;;;;5092010;28;20079;-74
2022/05/18 02:12:34;;;;;;;6.65;3.30;;;;;;;;;;5090675;28;20131;-74
2022/05/18 02:15:00;;;;;;;10.18;4.18;;;;;;;;;;5092140;28;20076;-74
2022/05/18 02:17:27;;;;;;;5.78;3.30;;;;;;;;;;5091865;28;20080;-74
2022/05/18 02:19:54;;;;;;;6.88;3.20;;;;;;;;;;5091926;28;20083;-74
2022/05/18 02:22:21;;;;;;;;;;;;;;;;;;5092598;28;20488;-74
2022/05/18 02:24:47;;;;;;;9.20;4.03;;;;;;;;;;5091739;28;19963;-74
2022/05/18 02:27:13;;;;;;;8.95;4.15;;;;;;;;;;5091952;28;20051;-74
2022/05/18 02:29:40;;;;;;;4.93;3.90;;;;;;;;;;5091785;28;20088;-74
2022/05/18 02:32:07;;;;;;;9.07;3.83;;;;;;;;;;5091962;28;20072;-74
2022/05/18 02:34:33;;;;;;;10.73;4.00;;;;;;;;;;5090400;28;20174;-74
2022/05/18 02:37:00;;;;;;;7.45;3.97;;;;;;;;;;5091877;28;20106;-74
2022/05/18 02:39:26;;;;;;;7.53;3.47;;;;;;;;;;5091593;28;20556;-74
2022/05/18 02:41:52;;;;;;;5.97;3.45;;;;;;;;;;5091934;28;20089;-74
2022/05/18 02:44:19;;;;;;;7.03;3.47;;;;;;;;;;5090317;28;20503;-74
2022/05/18 02:46:46;;;;;;;6.00;3.38;;;;;;;;;;5091924;28;20091;-74
2022/05/18 02:49:12;;;;;;;6.68;3.40;;;;;;;;;;5091849;28;20055;-74
2022/05/18 02:51:39;;;;;;;10.18;3.95;;;;;;;;;;5091855;28;20091;-74
2022/05/18 02:56:05;;;;;;;9.45;4.05;;;;;;;;;;5091840;28;20080;-74
2022/05/18 02:56:59;;;;;;;10.32;4.05;;;;;;;;;;5094895;28;20147;-73
2022/05/18 02:59:26;;;;;;;9.02;4.32;;;;;;;;;;5095523;28;20092;-74
2022/05/18 03:01:53;;;;;;;9.07;4.40;;;;;;;;;;5094721;28;20423;-74
2022/05/18 03:04:20;;;;;;;6.72;4.38;;;;;;;;;;5089964;28;20400;-73
2022/05/18 03:06:46;;;;;;;9.55;3.85;;;;;;;;;;5095622;28;20044;-73
2022/05/18 03:09:13;;;;;;;6.57;3.97;;;;;;;;;;5095436;28;20127;-74
2022/05/18 03:11:39;;;;;;;11.48;4.40;;;;;;;;;;5095589;28;20044;-74
2022/05/18 03:14:06;;;;;;;10.43;3.67;;;;;;;;;;5095281;28;20499;-74
2022/05/18 03:16:33;;;;;;;12.07;4.82;;;;;;;;;;5095184;28;20080;-74
2022/05/18 03:19:00;;;;;;;8.05;3.65;;;;;;;;;;5093937;28;20413;-74
2022/05/18 03:24:11;;;;;;;10.88;4.63;;;;;;;;;;5095359;28;20093;-73
2022/05/18 03:26:38;;;;;;;7.40;3.47;;;;;;;;;;5095196;28;20087;-73
2022/05/18 03:29:05;;;;;;;8.85;3.60;;;;;;;;;;5093851;28;20135;-74
2022/05/18 03:31:32;;;;;;;10.88;4.47;;;;;;;;;;5094877;28;20555;-74
2022/05/18 03:33:58;;;;;;;7.75;3.33;;;;;;;;;;5094774;28;20135;-73
2022/05/18 03:36:25;;;;;;;9.45;3.58;;;;;;;;;;5094945;28;20113;-73
2022/05/18 03:38:52;;;;;;;8.07;3.20;;;;;;;;;;5094821;28;20090;-73
2022/05/18 03:41:19;;;;;;;8.20;3.90;;;;;;;;;;5094816;28;20047;-74
2022/05/18 03:43:45;;;;;;;11.52;3.97;;;;;;;;;;5094718;28;20130;-74
2022/05/18 03:46:12;;;;;;;12.23;3.83;;;;;;;;;;5094666;28;20097;-74
2022/05/18 03:48:39;;;;;;;10.00;4.18;;;;;;;;;;5094656;28;20494;-74
2022/05/18 03:51:07;;;;;;;11.93;4.33;;;;;;;;;;5094606;28;20487;-73
2022/05/18 03:53:34;;;;;;;10.88;3.90;;;;;;;;;;5094554;28;20567;-73
2022/05/18 03:56:01;;;;;;;10.88;5.05;;;;;;;;;;5094661;28;20117;-73
2022/05/18 03:58:28;;;;;;;11.18;4.00;;;;;;;;;;5094501;28;20538;-74
2022/05/18 04:00:56;;;;;;;8.57;3.50;;;;;;;;;;5094376;28;20495;-74
2022/05/18 04:03:24;;;;;;;10.43;4.10;;;;;;;;;;5094699;28;20683;-74
2022/05/18 04:05:51;;;;;;;7.95;3.25;;;;;;;;;;5094362;28;20042;-74
2022/05/18 04:08:18;;;;;;;8.88;3.50;;;;;;;;;;5094174;28;20075;-74
2022/05/18 04:10:44;;;;;;;9.48;3.60;;;;;;;;;;5094199;28;20471;-74
2022/05/18 04:13:11;;;;;;;7.82;3.70;;;;;;;;;;5094390;28;20079;-74
2022/05/18 04:15:38;;;;;;;8.95;3.80;;;;;;;;;;5094775;28;20044;-73
2022/05/18 04:18:05;;;;;;;6.82;3.63;;;;;;;;;;5093933;28;20075;-74
2022/05/18 04:20:31;;;;;;;13.70;3.92;;;;;;;;;;5094357;28;20493;-73
2022/05/18 04:22:57;;;;;;;14.68;4.45;;;;;;;;;;5093923;28;20480;-73
2022/05/18 04:25:25;;;;;;;6.72;3.72;;;;;;;;;;5093935;28;20084;-73
2022/05/18 04:27:51;;;;;;;;;;;;;;;;;;5092947;28;20543;-73
2022/05/18 04:30:19;;;;;;;9.07;3.97;;;;;;;;;;5094145;28;19970;-73
2022/05/18 04:32:46;;;;;;;8.52;4.35;;;;;;;;;;5094014;28;20094;-73
2022/05/18 04:35:14;;;;;;;10.07;3.65;;;;;;;;;;5093730;28;20139;-73
2022/05/18 04:37:40;;;;;;;7.30;3.25;;;;;;;;;;5093930;28;20130;-73
2022/05/18 04:40:07;;;;;;;13.65;4.85;;;;;;;;;;5093712;28;20040;-74
2022/05/18 04:42:34;;;;;;;12.57;4.77;;;;;;;;;;5093610;28;20047;-73
2022/05/18 04:45:01;;;;;;;8.70;2.92;;;;;;;;;;5093413;28;20308;-73
2022/05/18 04:47:27;;;;;;;6.17;3.63;;;;;;;;;;5093588;28;20529;-73
2022/05/18 04:49:55;;;;;;;7.75;3.50;;;;;;;;;;5093764;28;20131;-73
2022/05/18 04:52:21;;;;;;;;;;;;;;;;;;5094160;28;20075;-73
2022/05/18 04:54:48;;;;;;;6.10;3.53;;;;;;;;;;5093615;28;19978;-73
2022/05/18 04:57:15;;;;;;;8.55;4.82;;;;;;;;;;5093460;28;20468;-73
2022/05/18 04:59:41;;;;;;;9.73;4.13;;;;;;;;;;5093300;28;20076;-73
2022/05/18 05:02:08;;;;;;;8.15;5.20;;;;;;;;;;5093683;28;20044;-74
2022/05/18 05:04:35;;;;;;;9.63;6.13;;;;;;;;;;5093549;28;20131;-73
2022/05/18 05:07:02;;;;;;;8.30;5.28;;;;;;;;;;5093376;28;20313;-74
2022/05/18 05:09:28;;;;;;;10.85;6.10;;;;;;;;;;5093077;28;20091;-73
2022/05/18 05:11:55;;;;;;;9.15;4.95;;;;;;;;;;5092954;28;20056;-73
2022/05/18 05:14:22;;;;;;;9.93;6.57;;;;;;;;;;5093266;28;20131;-74
2022/05/18 05:16:48;;;;;;;9.40;7.03;;;;;;;;;;5093110;28;20460;-74
2022/05/18 05:19:15;;;;;;;12.98;7.53;;;;;;;;;;5092240;28;20106;-74
2022/05/18 05:21:42;;;;;;;10.27;6.57;;;;;;;;;;5093173;28;20086;-73
2022/05/18 05:24:13;;;;;;;9.98;6.20;;;;;;;;;;5093094;28;20361;-73
2022/05/18 05:26:39;;;;;;;10.90;4.95;;;;;;;;;;5092775;28;20048;-73
2022/05/18 05:29:06;;;;;;;11.40;5.55;;;;;;;;;;5092712;28;20131;-74
2022/05/18 05:31:33;;;;;;;6.55;4.90;;;;;;;;;;5092945;28;20093;-74
2022/05/18 05:33:59;;;;;;;7.07;4.53;;;;;;;;;;5092476;28;20083;-74
2022/05/18 05:36:26;;;;;;;14.50;7.68;;;;;;;;;;5093060;28;20087;-74
2022/05/18 05:38:53;;;;;;;8.10;7.10;;;;;;;;;;5092545;28;20526;-73
2022/05/18 05:41:20;;;;;;;9.07;6.33;;;;;;;;;;5092640;28;20117;-73
2022/05/18 05:43:46;;;;;;;12.40;5.38;;;;;;;;;;5092316;28;20281;-73
2022/05/18 05:46:16;;;;;;;10.45;5.47;;;;;;;;;;5092065;28;20083;-74
2022/05/18 05:48:45;;;;;;;12.13;5.60;;;;;;;;;;5092398;28;20072;-74
2022/05/18 05:51:13;;;;;;;11.40;4.10;;;;;;;;;;5092284;28;20079;-74
2022/05/18 05:53:40;;;;;;;9.32;4.32;;;;;;;;;;5090949;28;20048;-74
2022/05/18 05:56:07;;;;;;;13.10;4.78;;;;;;;;;;5092196;28;20072;-74
2022/05/18 05:58:35;;;;;;;8.55;4.07;;;;;;;;;;5091742;28;20047;-73
2022/05/18 06:01:03;;;;;;;11.25;3.80;;;;;;;;;;5090668;28;20128;-74
2022/05/18 06:03:30;;;;;;;9.57;3.45;;;;;;;;;;5091678;28;20075;-74
2022/05/18 06:05:57;;;;;;;9.65;4.18;;;;;;;;;;5092364;28;20075;-74
2022/05/18 06:08:23;;;;;;;12.70;3.55;;;;;;;;;;5092308;28;20080;-74
2022/05/18 06:10:50;;;;;;;6.03;3.17;;;;;;;;;;5092223;28;20143;-74
2022/05/18 06:13:16;;;;;;;8.25;2.83;;;;;;;;;;5092279;28;20117;-73
2022/05/18 06:15:43;;;;;;;8.30;2.97;;;;;;;;;;5091968;28;20091;-74
2022/05/18 06:18:10;;;;;;;9.93;2.90;;;;;;;;;;5090638;28;20377;-75
2022/05/18 06:20:45;;;;;;;13.30;4.57;;;;;;;;;;5091061;28;20051;-74
2022/05/18 06:23:11;;;;;;;9.13;3.17;;;;;;;;;;5091783;28;20564;-74
2022/05/18 06:25:38;;;;;;;16.38;3.55;;;;;;;;;;5091571;28;20083;-75
2022/05/18 06:28:05;;;;;;;14.02;3.05;;;;;;;;;;5091682;28;20052;-73
2022/05/18 06:30:32;;;;;;;10.27;2.70;;;;;;;;;;5091962;28;20083;-74
2022/05/18 06:32:58;;;;;;;9.60;2.73;;;;;;;;;;5091279;28;20139;-74
2022/05/18 06:35:25;;;;;;;8.88;2.35;;;;;;;;;;5091197;28;20048;-74
2022/05/18 06:37:51;;;;;;;13.85;3.60;;;;;;;;;;5091918;28;20086;-75
2022/05/18 06:40:18;;;;;;;10.65;3.22;;;;;;;;;;5091212;28;20075;-75
2022/05/18 06:42:45;;;;;;;8.93;2.87;;;;;;;;;;5090536;28;20122;-75
2022/05/18 06:45:12;;;;;;;12.50;3.35;;;;;;;;;;5091227;28;20364;-76
2022/05/18 06:47:38;;;;;;;9.32;3.38;;;;;;;;;;5091139;28;20091;-76
2022/05/18 06:50:06;;;;;;;12.75;3.40;;;;;;;;;;5089928;28;20083;-76
2022/05/18 06:52:32;;;;;;;;;;;;;;;;;;5091968;28;20056;-75
2022/05/18 06:54:59;;;;;;;9.55;2.83;;;;;;;;;;5090230;28;19924;-75
2022/05/18 06:57:28;;;;;;;14.23;3.60;;;;;;;;;;5091420;28;20127;-76
2022/05/18 06:59:54;;;;;;;8.48;3.13;;;;;;;;;;5091095;28;20113;-74
2022/05/18 07:02:22;;;;;;;9.93;3.10;;;;;;;;;;5090620;28;20087;-77
2022/05/18 07:04:49;;;;;;;8.15;2.80;;;;;;;;;;5091536;28;20459;-75
2022/05/18 07:07:16;;;;;;;8.48;3.03;;;;;;;;;;5091354;28;20040;-78
2022/05/18 07:09:43;;;;;;;8.75;2.50;;;;;;;;;;5091248;28;20396;-74
2022/05/18 07:12:09;;;;;;;8.52;3.20;;;;;;;;;;5091266;28;20048;-74
2022/05/18 07:14:36;;;;;;;6.90;2.63;;;;;;;;;;5091080;28;20427;-75
2022/05/18 07:17:03;;;;;;;8.27;2.22;;;;;;;;;;5091086;28;20475;-76
2022/05/18 07:19:30;;;;;;;10.93;3.13;;;;;;;;;;5091713;28;20079;-76
2022/05/18 07:21:57;;;;;;;8.15;2.47;;;;;;;;;;5090299;28;20113;-74
2022/05/18 07:24:23;;;;;;;6.63;1.75;;;;;;;;;;5091269;28;20144;-76
2022/05/18 07:26:50;;;;;;;7.43;2.45;;;;;;;;;;5089965;28;20091;-74
2022/05/18 07:29:16;;;;;;;11.15;2.60;;;;;;;;;;5091142;28;20539;-74
2022/05/18 07:34:28;;;;;;;13.25;2.17;;;;;;;;;;5090680;28;20462;-76
2022/05/18 07:36:54;;;;;;;7.72;2.63;;;;;;;;;;5091132;28;20507;-74
2022/05/18 07:39:21;;;;;;;11.33;2.77;;;;;;;;;;5090909;28;20079;-75
2022/05/18 07:41:47;;;;;;;12.95;2.92;;;;;;;;;;5091857;28;20542;-75
2022/05/18 07:44:14;;;;;;;10.45;2.92;;;;;;;;;;5092985;28;20048;-75
2022/05/18 07:46:40;;;;;;;10.15;2.92;;;;;;;;;;5094257;28;20087;-74
2022/05/18 07:49:07;;;;;;;13.63;2.93;;;;;;;;;;5064514;28;20103;-77
2022/05/18 07:51:33;;;;;;;9.05;2.50;;;;;;;;;;5070242;28;20484;-74
2022/05/18 07:54:00;;;;;;;8.32;2.25;;;;;;;;;;5084599;28;20090;-77
2022/05/18 07:56:27;;;;;;;6.97;2.15;;;;;;;;;;5093424;28;20137;-76
2022/05/18 07:58:54;;;;;;;10.95;2.90;;;;;;;;;;5093731;28;20044;-74
2022/05/18 08:01:21;;;;;;;9.32;2.50;;;;;;;;;;5094611;28;20055;-76
2022/05/18 08:03:50;;;;;;;10.13;2.17;;;;;;;;;;5080269;28;20075;-76
2022/05/18 08:06:17;;;;;;;10.15;3.33;;;;;;;;;;5076662;28;20075;-76
2022/05/18 08:08:43;;;;;;;8.10;2.40;;;;;;;;;;5092693;28;20101;-76
2022/05/18 08:16:40;;;;;;;10.32;2.15;;;;;;;;;;5094059;28;20131;-75
2022/05/18 08:19:11;;;;;;;9.65;2.05;;;;;;;;;;5092997;28;20399;-76
2022/05/18 08:21:38;;;;;;;8.25;2.55;;;;;;;;;;5092926;28;20048;-76
2022/05/18 08:24:05;;;;;;;8.50;2.00;;;;;;;;;;5094127;28;20047;-76
2022/05/18 08:26:31;;;;;;;6.93;1.70;;;;;;;;;;5094142;28;20669;-74
2022/05/18 08:28:58;;;;;;;7.22;1.70;;;;;;;;;;5094200;28;20456;-77
2022/05/18 08:31:25;;;;;;;6.70;1.60;;;;;;;;;;5093881;28;20150;-76
2022/05/18 08:33:53;;;;;;;7.75;1.90;;;;;;;;;;5093511;28;20056;-76
2022/05/18 08:36:20;;;;;;;7.47;2.08;;;;;;;;;;5092751;28;20059;-76
2022/05/18 08:38:46;;;;;;;6.50;1.63;;;;;;;;;;5093543;28;20483;-76
2022/05/18 08:41:13;;;;;;;10.95;2.58;;;;;;;;;;5092727;28;20093;-76
2022/05/18 08:43:41;;;;;;;6.63;1.88;;;;;;;;;;5093787;28;20052;-78
2022/05/18 08:46:18;;;;;;;8.23;1.52;;;;;;;;;;5091665;28;20083;-76
2022/05/18 08:49:04;;;;;;;5.35;1.90;;;;;;;;;;5085530;28;20058;-77
2022/05/18 08:51:50;;;;;;;8.40;1.65;;;;;;;;;;5092128;28;20052;-74
2022/05/18 08:54:31;;;;;;;13.23;2.03;;;;;;;;;;5092392;28;20090;-74
2022/05/18 08:56:58;;;;;;;6.88;1.63;;;;;;;;;;5093353;28;20106;-74
2022/05/18 08:59:36;;;;;;;8.93;2.10;;;;;;;;;;5093440;28;20044;-74
2022/05/18 09:02:09;;;;;;;6.35;1.70;;;;;;;;;;5093400;28;20080;-74
2022/05/18 09:04:48;;;;;;;6.95;1.80;;;;;;;;;;5093253;28;20051;-74
2022/05/18 09:07:42;;;;;;;6.97;1.48;;;;;;;;;;5093378;28;20047;-75
2022/05/18 09:10:20;;;;;;;8.32;1.92;;;;;;;;;;5093422;28;20562;-74
2022/05/18 09:12:48;;;;;;;5.93;1.60;;;;;;;;;;5093010;28;20455;-74
2022/05/18 09:15:17;;;;;;;5.80;1.48;;;;;;;;;;5093296;28;20048;-74
2022/05/18 09:17:53;;;;;;;7.30;1.58;;;;;;;;;;5093161;28;20125;-74
2022/05/18 09:20:24;;;;;;;6.50;1.40;;;;;;;;;;5093170;28;20079;-74
2022/05/18 09:23:09;;;;;;;5.38;1.40;;;;;;;;;;5093112;28;20106;-74
2022/05/18 09:25:54;;;;;;;7.20;1.63;;;;;;;;;;5092835;28;20048;-74
2022/05/18 09:28:20;;;;;;;6.45;1.50;;;;;;;;;;5093005;28;20059;-74
2022/05/18 09:31:14;;;;;;;8.35;1.63;;;;;;;;;;5092891;28;20091;-75
2022/05/18 09:33:53;;;;;;;5.03;1.63;;;;;;;;;;5092489;28;20138;-74
2022/05/18 09:36:19;;;;;;;5.63;1.38;;;;;;;;;;5092500;28;20087;-74
2022/05/18 09:38:56;;;;;;;5.32;1.30;;;;;;;;;;5091224;28;20079;-74
2022/05/18 09:41:25;;;;;;;4.78;1.15;;;;;;;;;;5091492;28;20079;-74
2022/05/18 09:43:59;;;;;;;5.95;1.65;;;;;;;;;;5092773;28;20462;-74
2022/05/18 09:46:27;;;;;;;6.63;1.88;;;;;;;;;;5092422;28;20117;-74
2022/05/18 09:49:14;;;;;;;4.95;1.42;;;;;;;;;;5092402;28;20601;-74
2022/05/18 09:51:40;;;;;;;10.02;1.67;;;;;;;;;;5090901;28;20468;-74
2022/05/18 09:54:07;;;;;;;5.00;1.63;;;;;;;;;;5092350;28;20082;-74
2022/05/18 09:56:37;;;;;;;5.60;1.58;;;;;;;;;;5092158;28;20483;-73
2022/05/18 09:59:07;;;;;;;4.47;1.33;;;;;;;;;;5092409;28;20131;-73
2022/05/18 10:09:51;;;;;;;9.35;4.07;;;;;;;;;;5091994;28;20381;-74
2022/05/18 10:12:26;;;;;;;3.93;1.90;;;;;;;;;;5092256;28;20120;-74
2022/05/18 10:15:16;;;;;;;5.75;1.58;;;;;;;;;;5092043;28;20284;-74
2022/05/18 10:17:45;;;;;;;6.95;2.03;;;;;;;;;;5091746;28;20055;-74
2022/05/18 10:20:24;;;;;;;5.60;1.30;;;;;;;;;;5091879;28;20480;-74
2022/05/18 10:22:50;;;;;;;7.30;1.90;;;;;;;;;;5092028;28;20084;-74
2022/05/18 10:25:29;;;;;;;6.00;1.17;;;;;;;;;;5090634;28;20085;-74
2022/05/18 10:27:56;;;;;;;6.00;1.70;;;;;;;;;;5092027;28;20052;-74
2022/05/18 10:30:32;;;;;;;4.95;1.48;;;;;;;;;;5092018;28;20075;-74
2022/05/18 10:32:59;;;;;;;7.53;1.75;;;;;;;;;;5092055;28;20087;-74
2022/05/18 10:35:31;;;;;;;6.90;1.77;;;;;;;;;;5083049;28;20056;-74
2022/05/18 10:38:01;;;;;;;6.45;1.63;;;;;;;;;;5085993;28;20372;-74
2022/05/18 10:40:28;;;;;;;10.27;1.83;;;;;;;;;;5090732;28;20083;-74
2022/05/18 10:42:56;;;;;;;5.40;1.42;;;;;;;;;;5091643;28;20090;-74
2022/05/18 10:45:25;;;;;;;9.27;1.95;;;;;;;;;;5091615;28;20480;-74
2022/05/18 10:47:57;;;;;;;5.78;1.58;;;;;;;;;;5091968;28;20098;-74
2022/05/18 10:50:26;;;;;;;7.32;1.70;;;;;;;;;;5091485;28;20131;-74
2022/05/18 10:52:59;;;;;;;6.05;1.50;;;;;;;;;;5091097;28;20044;-74
2022/05/18 10:55:30;;;;;;;6.85;1.73;;;;;;;;;;5091350;28;20065;-74
2022/05/18 10:58:05;;;;;;;7.30;1.48;;;;;;;;;;5091786;28;20101;-74
2022/05/18 11:00:52;;;;;;;9.38;1.60;;;;;;;;;;5091374;28;20079;-74
2022/05/18 11:03:25;;;;;;;7.90;1.90;;;;;;;;;;5091541;28;20461;-74
2022/05/18 11:05:55;;;;;;;6.00;1.42;;;;;;;;;;5090198;28;20574;-74
2022/05/18 11:08:24;;;;;;;5.80;1.70;;;;;;;;;;5090292;28;20105;-74
2022/05/18 11:10:57;;;;;;;4.40;1.60;;;;;;;;;;5090227;28;20090;-74
2022/05/18 11:13:35;;;;;;;8.57;1.90;;;;;;;;;;5091767;28;20111;-74
2022/05/18 11:16:31;;;;;;;9.80;1.60;;;;;;;;;;5091267;28;20074;-74
2022/05/18 11:19:30;;;;;;;6.78;1.65;;;;;;;;;;5093148;28;20048;-74
2022/05/18 11:22:15;;;;;;;6.60;1.50;;;;;;;;;;5082476;28;20048;-75
2022/05/18 11:24:45;;;;;;;7.07;1.65;;;;;;;;;;5095001;28;20075;-73
2022/05/18 11:27:43;;;;;;;9.55;1.98;;;;;;;;;;5095293;28;20048;-73
2022/05/18 11:30:13;;;;;;;5.85;1.60;;;;;;;;;;5095077;28;20158;-74
2022/05/18 11:32:45;;;;;;;6.45;1.67;;;;;;;;;;5081410;28;20072;-74
2022/05/18 11:35:21;;;;;;;4.53;1.25;;;;;;;;;;5081214;28;20052;-74
2022/05/18 11:38:06;;;;;;;5.30;1.55;;;;;;;;;;5093945;28;20052;-74
2022/05/18 11:40:38;;;;;;;5.78;1.60;;;;;;;;;;5095006;28;20083;-74
2022/05/18 11:43:28;;;;;;;3.90;1.48;;;;;;;;;;5093841;28;20176;-74
2022/05/18 11:45:54;;;;;;;5.70;1.52;;;;;;;;;;5094816;28;20075;-74
2022/05/18 11:48:32;;;;;;;5.38;1.58;;;;;;;;;;5094677;28;20557;-74
2022/05/18 11:51:14;;;;;;;4.85;1.40;;;;;;;;;;5094981;28;20098;-74
2022/05/18 11:53:59;;;;;;;5.43;1.20;;;;;;;;;;5094742;28;20097;-75
2022/05/18 11:56:32;;;;;;;4.82;1.30;;;;;;;;;;5094817;28;20076;-74
2022/05/18 11:59:28;;;;;;;5.63;1.30;;;;;;;;;;5094706;28;20089;-74
2022/05/18 12:02:00;;;;;;;7.65;1.48;;;;;;;;;;5093198;28;20056;-75
2022/05/18 12:04:30;;;;;;;6.50;1.80;;;;;;;;;;5093191;28;20052;-74
2022/05/18 12:07:13;;;;;;;4.70;1.00;;;;;;;;;;5094561;28;20441;-74
2022/05/18 12:09:48;;;;;;;4.88;1.48;;;;;;;;;;5094427;28;20454;-74
2022/05/18 12:12:21;;;;;;;3.58;1.58;;;;;;;;;;5094117;28;20169;-74
2022/05/18 12:14:53;;;;;;;4.82;1.60;;;;;;;;;;5094231;28;20533;-74
2022/05/18 12:17:23;;;;;;;4.63;1.30;;;;;;;;;;5094188;28;20086;-74
2022/05/18 12:19:58;;;;;;;4.82;1.10;;;;;;;;;;5093087;28;20052;-74
2022/05/18 12:22:29;;;;;;;6.85;1.42;;;;;;;;;;5094084;28;20518;-74
2022/05/18 12:24:55;;;;;;;4.50;1.40;;;;;;;;;;5066135;28;20072;-74
2022/05/18 12:27:23;;;;;;;5.45;1.38;;;;;;;;;;5093904;28;20047;-74
2022/05/18 12:29:52;;;;;;;3.92;1.20;;;;;;;;;;5094183;28;20075;-74
2022/05/18 12:32:19;;;;;;;6.03;1.38;;;;;;;;;;5093851;28;20087;-74
2022/05/18 12:34:54;;;;;;;4.45;1.17;;;;;;;;;;5093473;28;20139;-74
2022/05/18 12:37:23;;;;;;;4.57;1.40;;;;;;;;;;5092473;28;20060;-74
2022/05/18 12:40:02;;;;;;;3.95;1.15;;;;;;;;;;5092213;28;20048;-74
2022/05/18 12:42:39;;;;;;;4.03;1.10;;;;;;;;;;5094008;28;20052;-74
2022/05/18 12:45:12;;;;;;;4.68;0.88;;;;;;;;;;5094090;28;20059;-74
2022/05/18 12:47:41;;;;;;;4.22;0.98;;;;;;;;;;5093919;28;20496;-75
2022/05/18 12:50:11;;;;;;;3.72;1.10;;;;;;;;;;5093534;28;20083;-75
2022/05/18 12:52:42;;;;;;;6.50;1.20;;;;;;;;;;5093768;28;20134;-74
2022/05/18 12:55:27;;;;;;;3.97;1.35;;;;;;;;;;5093658;28;20052;-74
2022/05/18 12:57:55;;;;;;;3.08;0.80;;;;;;;;;;5093443;28;20128;-74
2022/05/18 13:00:24;;;;;;;4.03;1.33;;;;;;;;;;5093205;28;20085;-74
2022/05/18 13:02:55;;;;;;;3.45;1.00;;;;;;;;;;5093207;28;20449;-74
2022/05/18 13:05:24;;;;;;;4.85;1.10;;;;;;;;;;5093474;28;20087;-74
2022/05/18 13:07:51;;;;;;;4.78;0.90;;;;;;;;;;5093479;28;20109;-74
2022/05/18 13:10:20;;;;;;;3.38;1.08;;;;;;;;;;5093307;28;20083;-74
2022/05/18 13:12:53;;;;;;;2.72;0.80;;;;;;;;;;5093299;28;20075;-74
2022/05/18 13:15:20;;;;;;;3.63;1.00;;;;;;;;;;5093093;28;20051;-74
2022/05/18 13:17:55;;;;;;;4.78;1.10;;;;;;;;;;5093282;28;20051;-74
2022/05/18 13:20:21;;;;;;;3.97;1.10;;;;;;;;;;5093120;28;20090;-74
2022/05/18 13:23:21;;;;;;;6.55;1.20;;;;;;;;;;5092987;28;20106;-74
2022/05/18 13:25:49;;;;;;;3.83;1.02;;;;;;;;;;5092873;28;20070;-74
2022/05/18 13:28:17;;;;;;;4.55;0.88;;;;;;;;;;5092919;28;20092;-74
2022/05/18 13:30:51;;;;;;;5.20;1.23;;;;;;;;;;5092693;28;20519;-74
2022/05/18 13:33:49;;;;;;;6.20;1.30;;;;;;;;;;5092530;28;20518;-74
2022/05/18 13:36:30;;;;;;;5.63;1.20;;;;;;;;;;5092851;28;20052;-74
2022/05/18 13:38:56;;;;;;;3.63;1.30;;;;;;;;;;5092329;28;20083;-74
2022/05/18 13:41:23;;;;;;;4.72;1.38;;;;;;;;;;5092330;28;20538;-73
2022/05/18 13:43:51;;;;;;;4.43;1.35;;;;;;;;;;5092819;28;20045;-74
2022/05/18 13:46:20;;;;;;;3.58;1.27;;;;;;;;;;5092400;28;20075;-74
2022/05/18 13:48:49;;;;;;;5.07;1.60;;;;;;;;;;5092757;28;20372;-74
2022/05/18 13:51:19;;;;;;;5.70;1.10;;;;;;;;;;5092370;28;20505;-74
2022/05/18 13:53:50;;;;;;;4.47;0.95;;;;;;;;;;5092563;28;20048;-74
2022/05/18 13:56:20;;;;;;;5.68;1.27;;;;;;;;;;5092627;28;20407;-74
2022/05/18 13:58:47;;;;;;;6.72;1.50;;;;;;;;;;5087680;28;20076;-74
2022/05/18 14:01:19;;;;;;;5.70;1.42;;;;;;;;;;5083181;28;20048;-74
2022/05/18 14:03:51;;;;;;;2.67;1.30;;;;;;;;;;5091236;28;20048;-74
2022/05/18 14:06:21;;;;;;;3.90;1.35;;;;;;;;;;5091030;28;20056;-74
2022/05/18 14:09:04;;;;;;;4.22;1.42;;;;;;;;;;5090846;28;20044;-73
2022/05/18 14:11:31;;;;;;;5.82;1.10;;;;;;;;;;5092253;28;20097;-74
2022/05/18 14:13:58;;;;;;;5.40;1.20;;;;;;;;;;5092247;28;20052;-73
2022/05/18 14:16:48;;;;;;;5.85;1.30;;;;;;;;;;5092249;28;20060;-74
2022/05/18 14:19:17;;;;;;;5.45;1.33;;;;;;;;;;5092090;28;20093;-74
2022/05/18 14:21:46;;;;;;;5.15;1.38;;;;;;;;;;5092069;28;20052;-74
2022/05/18 14:24:18;;;;;;;5.95;1.40;;;;;;;;;;5091795;28;20513;-74
2022/05/18 14:26:49;;;;;;;7.13;1.35;;;;;;;;;;5091866;28;20044;-74
2022/05/18 14:29:25;;;;;;;6.57;1.13;;;;;;;;;;5092170;28;20056;-74
2022/05/18 14:31:55;;;;;;;5.03;1.25;;;;;;;;;;5091832;28;20056;-74
2022/05/18 14:34:29;;;;;;;6.22;1.05;;;;;;;;;;5091838;28;20125;-73
2022/05/18 14:36:56;;;;;;;6.20;1.55;;;;;;;;;;5092068;28;20052;-74
2022/05/18 14:39:28;;;;;;;7.80;1.77;;;;;;;;;;5091950;28;20055;-74
2022/05/18 14:41:55;;;;;;;6.10;1.55;;;;;;;;;;5091626;28;20048;-74
2022/05/18 14:44:25;;;;;;;6.93;1.98;;;;;;;;;;5092386;28;20472;-74
2022/05/18 14:47:15;;;;;;;7.57;1.73;;;;;;;;;;5091821;28;20393;-74
2022/05/18 14:49:42;;;;;;;6.20;1.80;;;;;;;;;;5091904;28;20048;-74
2022/05/18 14:52:09;;;;;;;4.75;1.42;;;;;;;;;;5095693;28;20047;-74
2022/05/18 14:54:36;;;;;;;;;;;;;;;;;;5096102;28;20048;-74
2022/05/18 14:57:09;;;;;;;6.68;1.40;;;;;;;;;;5095558;28;19977;-74
2022/05/18 14:59:41;;;;;;;4.50;1.45;;;;;;;;;;5095628;28;20079;-74
2022/05/18 15:02:10;;;;;;;6.60;1.50;;;;;;;;;;5095860;28;20055;-74
2022/05/18 15:04:39;;;;;;;7.55;1.50;;;;;;;;;;5094324;28;20040;-75
2022/05/18 15:07:09;;;;;;;4.00;1.17;;;;;;;;;;5095751;28;20072;-74
2022/05/18 15:09:40;;;;;;;7.82;1.08;;;;;;;;;;5094491;28;20092;-74
2022/05/18 15:12:12;;;;;;;4.00;1.20;;;;;;;;;;5095378;28;20074;-74
2022/05/18 15:14:41;;;;;;;10.25;1.85;;;;;;;;;;5095357;28;20488;-74
2022/05/18 15:17:16;;;;;;;5.47;1.27;;;;;;;;;;5094412;28;20079;-74
2022/05/18 15:19:45;;;;;;;4.38;1.20;;;;;;;;;;5095082;28;20381;-74